Monday, January 22, 2018, 8:46 AM EST
Back to Local

KLWM, Lawrence Municipal Airport

Location: North Andover, MA, United States Lat: 42.717
Local Time: 8:46 AM EST (13:46 GMT) Lon: -71.133
Time Zone: US/Eastern Elev: 147 ft

Show me the last for .
Show Decoded

2018-01-22 07:54 METAR KLWM 221254Z 03004KT 5SM -RA OVC023 02/M01 A3026 RMK AO2 RAB25 SLP250
                 P0000 T00221006 =
2018-01-22 07:15 METAR KLWM 221215Z 04003KT 8SM BKN027 OVC033 02/M01 A3025 RMK AO2 T00221006 =
2018-01-22 06:54 METAR KLWM 221154Z 04004KT 10SM OVC034 02/M01 A3023 RMK AO2 SLP239 60000
                 T00221006 10022 20011 53008 =
2018-01-22 05:54 METAR KLWM 221054Z AUTO 00000KT 9SM BKN038 OVC048 02/M01 A3022 RMK AO2 SLP235
                 T00221006 =
2018-01-22 04:54 METAR KLWM 220954Z AUTO 00000KT 9SM BKN043 OVC060 02/M01 A3021 RMK AO2 RAE00
                 SLP232 P0000 T00171006 =
2018-01-22 03:54 METAR KLWM 220854Z AUTO 00000KT 9SM -RA FEW039 BKN049 OVC055 02/M01 A3021 RMK
                 AO2 RAB02E15B45 SLP230 P0000 60000 T00171006 53007 =
2018-01-22 02:54 METAR KLWM 220754Z AUTO 00000KT 10SM BKN050 OVC065 02/M01 A3020 RMK AO2 SLP227
                 T00171011 =
2018-01-22 01:54 METAR KLWM 220654Z AUTO 00000KT 10SM OVC070 01/M02 A3019 RMK AO2 SLP225
                 T00111017 =
2018-01-22 00:54 METAR KLWM 220554Z AUTO 09003KT 10SM BKN070 01/M02 A3019 RMK AO2 SLP223
                 T00111017 10056 21006 58002 =
2018-01-21 23:54 METAR KLWM 220454Z AUTO 00000KT 10SM CLR 00/M03 A3020 RMK AO2 SLP228 T00001028
                 401061006 =
2018-01-21 22:54 METAR KLWM 220354Z AUTO 00000KT 10SM CLR 01/M02 A3020 RMK AO2 SLP227 T00061022 =
2018-01-21 21:54 METAR KLWM 220254Z VRB03KT 10SM CLR 04/M02 A3019 RMK AO2 SLP225 T00441017 50002
                 =
2018-01-21 20:54 METAR KLWM 220154Z 00000KT 10SM CLR 01/M03 A3020 RMK AO2 SLP227 T00061028 =
2018-01-21 19:54 METAR KLWM 220054Z 00000KT 10SM CLR 02/M02 A3019 RMK AO2 SLP224 T00171022 =
2018-01-21 18:54 METAR KLWM 212354Z 03003KT 10SM CLR 02/M02 A3019 RMK AO2 SLP224 T00221022 10106
                 20022 53018 =
2018-01-21 17:54 METAR KLWM 212254Z 00000KT 10SM CLR 04/M02 A3017 RMK AO2 SLP218 T00441022 =
2018-01-21 16:54 METAR KLWM 212154Z 00000KT 10SM CLR 07/M02 A3015 RMK AO2 SLP209 T00721022 =
2018-01-21 15:54 METAR KLWM 212054Z 30004KT 10SM CLR 09/M02 A3013 RMK AO2 SLP205 T00941022 53007
                 =
2018-01-21 14:54 METAR KLWM 211954Z 28005KT 10SM CLR 10/M02 A3012 RMK AO2 SLP200 T01001022 =
2018-01-21 13:54 METAR KLWM 211854Z 31005KT 10SM CLR 10/M02 A3011 RMK AO2 SLP197 T01001017 =
2018-01-21 12:54 METAR KLWM 211754Z 29006KT 10SM CLR 10/M02 A3011 RMK AO2 SLP198 T01001017 10100
                 20028 58010 =
2018-01-21 11:54 METAR KLWM 211654Z 32007KT 10SM CLR 09/M01 A3013 RMK AO2 SLP202 T00941011 =
2018-01-21 10:54 METAR KLWM 211554Z 28007KT 10SM CLR 08/M01 A3016 RMK AO2 SLP213 T00831011 =
2018-01-21 09:54 METAR KLWM 211454Z 29006KT 10SM CLR 07/M01 A3014 RMK AO2 SLP208 T00721011 51020
                 =
2018-01-21 08:54 METAR KLWM 211354Z 00000KT 10SM CLR 05/M01 A3013 RMK AO2 SLP202 T00501011 =

Support USWX by starting your Amazon purchase here.